Terminal Aerodrome Forecast
Issued by NWS Boston, MA

Home | Current Version | Previous Version | Text Only | Print | Product List | Glossary On
Versions: 1 2 3 4 5 6 7 8 9 10 11 12 13 14 15 16 17 18 19 20 21 22 23 24 25 26 27 28 29 30 31 32 33 34 35 36
000
FTUS41 KBOX 020522
TAFORH
TAF
KORH 020522Z 0206/0306 02009KT 5SM -RA BR OVC003
     FM021000 01009KT 1SM BR OVC001
     FM021300 02010KT 2SM BR OVC003
     FM021600 02011KT P6SM OVC008
     FM021800 02010KT P6SM BKN025
     FM022100 03009KT P6SM BKN050=

USA.gov is the U.S. government's official web portal to all federal, state and local government web resources and services.